Time;durP1;ratioP1;P1;durP2;ratioP2;P2;SDS_P1;SDS_P2;PMS_P1;PMS_P2;Temp;Humidity;BMP_temperature;BMP_pressure;BME280_temperature;BME280_humidity;BME280_pressure;Samples;Min_cycle;Max_cycle;Signal;HPM_P1;HPM_P2
2022/04/27 00:00:29;;;;;;;14.38;9.52;;;10.60;99.90;;;;;;5008420;28;20022;-70
2022/04/27 00:02:58;;;;;;;10.20;8.38;;;10.50;99.90;;;;;;5010829;28;20075;-70
2022/04/27 00:05:25;;;;;;;14.45;9.80;;;10.60;99.90;;;;;;5010405;28;20093;-70
2022/04/27 00:07:50;;;;;;;13.80;9.20;;;10.50;99.90;;;;;;5010326;28;20075;-70
2022/04/27 00:10:19;;;;;;;14.02;9.43;;;10.40;99.90;;;;;;5010482;28;20053;-70
2022/04/27 00:12:46;;;;;;;12.60;8.93;;;10.40;99.90;;;;;;5010336;28;20647;-70
2022/04/27 00:15:12;;;;;;;11.93;9.68;;;10.40;99.90;;;;;;5009767;28;20432;-70
2022/04/27 00:17:39;;;;;;;11.35;8.98;;;10.30;99.90;;;;;;5004645;28;20100;-70
2022/04/27 00:20:07;;;;;;;13.32;9.90;;;10.30;99.90;;;;;;5017054;28;20496;-70
2022/04/27 00:22:33;;;;;;;14.95;10.25;;;10.30;99.90;;;;;;5010316;28;20059;-70
2022/04/27 00:25:00;;;;;;;14.05;9.45;;;10.30;99.90;;;;;;5010549;28;20025;-70
2022/04/27 00:27:27;;;;;;;16.23;9.75;;;10.30;99.90;;;;;;5010793;28;20050;-70
2022/04/27 00:29:54;;;;;;;16.25;9.88;;;10.30;99.90;;;;;;5010508;28;20845;-70
2022/04/27 00:32:20;;;;;;;15.68;11.73;;;10.20;99.90;;;;;;5010352;28;20058;-70
2022/04/27 00:34:45;;;;;;;14.95;10.95;;;10.20;99.90;;;;;;5010022;28;20080;-70
2022/04/27 00:37:11;;;;;;;13.15;10.82;;;10.20;99.90;;;;;;5010593;28;20033;-70
2022/04/27 00:39:37;;;;;;;15.98;10.48;;;10.20;99.90;;;;;;5010370;28;20075;-70
2022/04/27 00:42:22;;;;;;;16.48;10.20;;;10.00;99.90;;;;;;5010413;28;20037;-70
2022/04/27 00:44:49;;;;;;;14.75;10.27;;;10.00;99.90;;;;;;5009808;28;20060;-70
2022/04/27 00:47:16;;;;;;;17.05;11.10;;;9.90;99.90;;;;;;5007265;28;20022;-70
2022/04/27 00:49:52;;;;;;;14.25;10.05;;;9.90;99.90;;;;;;5010291;28;20524;-70
2022/04/27 00:52:20;;;;;;;16.70;10.57;;;9.90;99.90;;;;;;5007576;28;20038;-70
2022/04/27 00:54:51;;;;;;;14.52;11.07;;;10.00;99.90;;;;;;4991703;28;20024;-70
2022/04/27 00:57:18;;;;;;;15.60;11.50;;;9.90;99.90;;;;;;5007801;28;20082;-70
2022/04/27 00:59:46;;;;;;;13.63;10.93;;;9.80;99.90;;;;;;5010152;28;20022;-70
2022/04/27 01:02:12;;;;;;;13.57;11.07;;;9.80;99.90;;;;;;5009122;28;20037;-70
2022/04/27 01:04:38;;;;;;;15.45;10.27;;;9.70;99.90;;;;;;5011305;28;20022;-70
2022/04/27 01:07:07;;;;;;;13.32;11.25;;;9.70;99.90;;;;;;5009922;28;20034;-70
2022/04/27 01:09:33;;;;;;;13.30;11.48;;;9.70;99.90;;;;;;5011434;28;20034;-70
2022/04/27 01:12:01;;;;;;;17.00;11.70;;;9.80;99.90;;;;;;5011091;28;20513;-70
2022/04/27 01:14:27;;;;;;;15.77;10.27;;;9.80;99.90;;;;;;5011059;28;20025;-70
2022/04/27 01:16:57;;;;;;;16.55;11.52;;;9.80;99.90;;;;;;5010423;28;20470;-70
2022/04/27 01:19:24;;;;;;;16.02;11.98;;;9.70;99.90;;;;;;5006404;28;20025;-70
2022/04/27 01:21:50;;;;;;;20.35;11.93;;;9.70;99.90;;;;;;5011119;28;20557;-70
2022/04/27 01:24:20;;;;;;;16.30;10.70;;;9.70;99.90;;;;;;5011178;28;20079;-70
2022/04/27 01:26:48;;;;;;;21.00;12.45;;;9.60;99.90;;;;;;5011196;28;20049;-70
2022/04/27 01:29:18;;;;;;;16.63;11.38;;;9.60;99.90;;;;;;5010915;28;20098;-70
2022/04/27 01:31:44;;;;;;;16.52;11.90;;;9.60;99.90;;;;;;5010692;28;20567;-70
2022/04/27 01:34:10;;;;;;;17.30;11.60;;;9.50;99.90;;;;;;5009289;28;20066;-70
2022/04/27 01:36:36;;;;;;;13.48;10.73;;;9.50;99.90;;;;;;5011178;28;20029;-70
2022/04/27 01:39:03;;;;;;;17.90;12.27;;;9.50;99.90;;;;;;5010582;28;20054;-70
2022/04/27 01:41:29;;;;;;;13.48;10.48;;;9.50;99.90;;;;;;5010704;28;20037;-70
2022/04/27 01:43:55;;;;;;;16.88;11.52;;;9.40;99.90;;;;;;5010721;28;20034;-70
2022/04/27 01:46:20;;;;;;;17.85;12.38;;;9.40;99.90;;;;;;5010643;28;20135;-70
2022/04/27 01:48:46;;;;;;;19.35;12.05;;;9.30;99.90;;;;;;5009614;28;20090;-70
2022/04/27 01:51:13;;;;;;;19.40;12.40;;;9.30;99.90;;;;;;5010515;28;20030;-70
2022/04/27 01:56:23;;;;;;;17.35;12.63;;;9.30;99.90;;;;;;5010592;28;20057;-70
2022/04/27 01:58:49;;;;;;;14.77;11.30;;;9.30;99.90;;;;;;5009482;28;20462;-70
2022/04/27 02:01:14;;;;;;;17.67;11.75;;;9.20;99.90;;;;;;5009734;28;20451;-70
2022/04/27 02:03:40;;;;;;;19.77;12.80;;;9.20;99.90;;;;;;5010556;28;20026;-69
2022/04/27 02:06:07;;;;;;;19.95;13.10;;;9.30;99.90;;;;;;5009396;28;20030;-69
2022/04/27 02:08:32;;;;;;;18.23;12.98;;;9.20;99.90;;;;;;5010529;28;20049;-70
2022/04/27 02:10:58;;;;;;;18.08;12.60;;;9.20;99.90;;;;;;5010411;28;20146;-69
2022/04/27 02:13:26;;;;;;;16.20;11.48;;;9.10;99.90;;;;;;5010091;28;20033;-70
2022/04/27 02:15:52;;;;;;;16.40;11.55;;;9.10;99.90;;;;;;5010366;28;20063;-70
2022/04/27 02:18:19;;;;;;;17.50;12.70;;;9.10;99.90;;;;;;5009753;28;20534;-70
2022/04/27 02:20:45;;;;;;;19.05;12.65;;;9.10;99.90;;;;;;5010437;28;20424;-70
2022/04/27 02:23:11;;;;;;;14.63;12.05;;;9.10;99.90;;;;;;5010458;28;20390;-70
2022/04/27 02:25:37;;;;;;;20.67;12.43;;;9.00;99.90;;;;;;5010473;28;20064;-70
2022/04/27 02:28:05;;;;;;;19.08;12.40;;;9.00;99.90;;;;;;4990766;28;20038;-70
2022/04/27 02:30:32;;;;;;;19.63;12.55;;;8.90;99.90;;;;;;5009996;28;20121;-70
2022/04/27 02:32:58;;;;;;;16.67;12.35;;;8.90;99.90;;;;;;5009291;28;20103;-70
2022/04/27 02:35:24;;;;;;;20.92;13.93;;;8.90;99.90;;;;;;5009496;28;20412;-70
2022/04/27 02:37:49;;;;;;;18.35;13.05;;;8.90;99.90;;;;;;5010058;28;20034;-70
2022/04/27 02:40:15;;;;;;;19.08;13.48;;;8.90;99.90;;;;;;5010105;28;20397;-71
2022/04/27 02:42:41;;;;;;;18.23;12.60;;;8.90;99.90;;;;;;5009970;28;20446;-70
2022/04/27 02:45:07;;;;;;;19.30;13.25;;;8.90;99.90;;;;;;5009523;28;20029;-70
2022/04/27 02:47:32;;;;;;;20.63;13.57;;;8.80;99.90;;;;;;5009272;28;20493;-70
2022/04/27 02:52:43;;;;;;;19.15;13.02;;;8.80;99.90;;;;;;5009407;28;20048;-69
2022/04/27 02:55:08;;;;;;;18.00;13.02;;;8.80;99.90;;;;;;5009977;28;20030;-69
2022/04/27 02:57:34;;;;;;;21.05;13.20;;;8.70;99.90;;;;;;5009924;28;20462;-70
2022/04/27 03:00:00;;;;;;;19.77;12.70;;;8.70;99.90;;;;;;5009534;28;20033;-70
2022/04/27 03:02:25;;;;;;;15.27;12.63;;;8.70;99.90;;;;;;5010181;28;20104;-70
2022/04/27 03:04:51;;;;;;;17.73;12.10;;;8.60;99.90;;;;;;5006341;28;20034;-70
2022/04/27 03:07:17;;;;;;;16.45;13.13;;;8.60;99.90;;;;;;5009753;28;20109;-70
2022/04/27 03:09:42;;;;;;;16.92;12.85;;;8.50;99.90;;;;;;5009946;28;20156;-70
2022/04/27 03:12:08;;;;;;;17.88;13.20;;;8.60;99.90;;;;;;5009778;28;20038;-70
2022/04/27 03:14:34;;;;;;;21.52;14.23;;;8.50;99.90;;;;;;5009387;28;20058;-70
2022/04/27 03:17:00;;;;;;;17.33;14.30;;;8.50;99.90;;;;;;5010474;28;20042;-70
2022/04/27 03:19:25;;;;;;;19.45;14.10;;;8.50;99.90;;;;;;5012412;28;20412;-70
2022/04/27 03:21:51;;;;;;;19.38;14.25;;;8.50;99.90;;;;;;5013169;28;20026;-71
2022/04/27 03:24:17;;;;;;;22.85;13.88;;;8.40;99.90;;;;;;5012724;28;20021;-70
2022/04/27 03:26:43;;;;;;;19.25;12.90;;;8.40;99.90;;;;;;5012500;28;20067;-70
2022/04/27 03:29:08;;;;;;;17.80;13.05;;;8.40;99.90;;;;;;5012340;28;20030;-70
2022/04/27 03:31:34;;;;;;;19.02;13.43;;;8.40;99.90;;;;;;5011898;28;20112;-70
2022/04/27 03:34:00;;;;;;;17.30;13.18;;;8.40;99.90;;;;;;5012718;28;20068;-70
2022/04/27 03:36:26;;;;;;;15.95;11.70;;;8.40;99.90;;;;;;5012147;28;20091;-70
2022/04/27 03:38:52;;;;;;;17.65;12.80;;;8.30;99.90;;;;;;5012758;28;20026;-70
2022/04/27 03:41:22;;;;;;;19.75;13.35;;;8.20;99.90;;;;;;5009109;28;20023;-70
2022/04/27 03:43:49;;;;;;;15.50;12.30;;;8.20;99.90;;;;;;4992194;28;20394;-70
2022/04/27 03:46:15;;;;;;;19.00;12.23;;;8.20;99.90;;;;;;4993253;28;20575;-70
2022/04/27 03:48:41;;;;;;;17.92;13.50;;;8.20;99.90;;;;;;4993390;28;20052;-70
2022/04/27 03:51:07;;;;;;;18.17;12.82;;;8.20;99.90;;;;;;5006292;28;20389;-70
2022/04/27 03:53:33;;;;;;;16.52;12.70;;;8.20;99.90;;;;;;5012218;28;20097;-70
2022/04/27 03:55:59;;;;;;;17.30;12.90;;;8.20;99.90;;;;;;5012355;28;20416;-70
2022/04/27 03:58:24;;;;;;;18.27;12.88;;;8.10;99.90;;;;;;5012165;28;20086;-70
2022/04/27 04:00:50;;;;;;;17.40;13.05;;;8.10;99.90;;;;;;5004764;28;20056;-70
2022/04/27 04:03:16;;;;;;;16.92;12.15;;;8.00;99.90;;;;;;4994513;28;20124;-70
2022/04/27 04:05:41;;;;;;;16.55;13.48;;;8.00;99.90;;;;;;5011267;28;20030;-70
2022/04/27 04:08:07;;;;;;;16.08;12.02;;;8.00;99.90;;;;;;5012290;28;20430;-70
2022/04/27 04:10:33;;;;;;;18.73;12.63;;;8.10;99.90;;;;;;5012040;28;20099;-70
2022/04/27 04:12:58;;;;;;;17.35;13.48;;;8.00;99.90;;;;;;5011816;28;20046;-70
2022/04/27 04:15:24;;;;;;;19.52;13.88;;;7.90;99.90;;;;;;5011979;28;20069;-70
2022/04/27 04:17:50;;;;;;;18.90;14.48;;;7.90;99.90;;;;;;4995207;28;20042;-70
2022/04/27 04:20:17;;;;;;;19.02;14.10;;;7.90;99.90;;;;;;5012018;28;20053;-70
2022/04/27 04:22:44;;;;;;;22.23;15.30;;;7.90;99.90;;;;;;5012272;28;20025;-70
2022/04/27 04:30:39;;;;;;;21.05;14.60;;;7.80;99.90;;;;;;5006053;28;20390;-70
2022/04/27 04:33:05;;;;;;;18.30;12.68;;;7.80;99.90;;;;;;4995381;28;20112;-70
2022/04/27 04:35:32;;;;;;;18.52;13.43;;;7.80;99.90;;;;;;5010961;28;20018;-70
2022/04/27 04:37:58;;;;;;;20.50;15.27;;;7.80;99.90;;;;;;5011643;28;20034;-70
2022/04/27 04:40:23;;;;;;;21.23;14.80;;;7.70;99.90;;;;;;5011560;28;20377;-70
2022/04/27 04:42:49;;;;;;;22.60;13.80;;;7.70;99.90;;;;;;5011234;28;20021;-70
2022/04/27 04:45:15;;;;;;;18.63;13.38;;;7.70;99.90;;;;;;5011985;28;20494;-70
2022/04/27 04:47:42;;;;;;;21.85;13.48;;;7.60;99.90;;;;;;5012008;28;20112;-70
2022/04/27 04:50:09;;;;;;;24.23;14.93;;;7.60;99.90;;;;;;5011789;28;20033;-69
2022/04/27 04:52:34;;;;;;;22.63;14.73;;;7.60;99.90;;;;;;5011475;28;20038;-70
2022/04/27 04:55:00;;;;;;;19.15;14.57;;;7.60;99.90;;;;;;5011148;28;20026;-69
2022/04/27 04:57:26;;;;;;;22.75;13.88;;;7.60;99.90;;;;;;5011601;28;20034;-70
2022/04/27 04:59:51;;;;;;;19.77;14.35;;;7.70;99.90;;;;;;5011690;28;20056;-69
2022/04/27 05:02:17;;;;;;;19.92;13.68;;;7.60;99.90;;;;;;4992523;28;20544;-70
2022/04/27 05:04:43;;;;;;;17.58;13.77;;;7.60;99.90;;;;;;4993990;28;20031;-70
2022/04/27 05:07:08;;;;;;;16.15;13.00;;;7.60;99.90;;;;;;5010482;28;20035;-70
2022/04/27 05:09:34;;;;;;;21.10;15.13;;;7.60;99.90;;;;;;5011164;28;20370;-69
2022/04/27 05:12:00;;;;;;;21.52;14.90;;;7.60;99.90;;;;;;5011137;28;20053;-70
2022/04/27 05:14:26;;;;;;;17.23;13.57;;;7.60;99.90;;;;;;5011287;28;20022;-70
2022/04/27 05:16:51;;;;;;;19.88;14.93;;;7.70;99.90;;;;;;5011390;28;20432;-70
2022/04/27 05:19:17;;;;;;;22.73;14.57;;;7.70;99.90;;;;;;5011105;28;20076;-70
2022/04/27 05:21:43;;;;;;;22.23;15.82;;;7.70;99.90;;;;;;5011121;28;20554;-70
2022/04/27 05:24:08;;;;;;;22.23;15.75;;;7.70;99.90;;;;;;5010421;28;20097;-70
2022/04/27 05:26:34;;;;;;;21.95;14.45;;;7.70;99.90;;;;;;5010267;28;20059;-70
2022/04/27 05:31:54;;;;;;;24.83;13.98;;;7.80;99.90;;;;;;5010432;28;20050;-70
2022/04/27 05:34:21;;;;;;;24.40;15.35;;;7.70;99.90;;;;;;4989692;28;20374;-70
2022/04/27 05:36:47;;;;;;;26.23;16.15;;;7.70;99.90;;;;;;5010120;28;20029;-70
2022/04/27 05:39:13;;;;;;;20.63;15.27;;;7.70;99.90;;;;;;5010936;28;20489;-69
2022/04/27 05:41:39;;;;;;;23.55;15.88;;;7.90;99.90;;;;;;5003213;28;20079;-69
2022/04/27 05:44:09;;;;;;;23.10;16.02;;;7.90;99.90;;;;;;4991352;28;20057;-70
2022/04/27 05:46:39;;;;;;;24.65;16.98;;;8.00;99.90;;;;;;5003889;28;20032;-70
2022/04/27 05:49:05;;;;;;;23.42;16.98;;;8.00;99.90;;;;;;5010988;28;20030;-70
2022/04/27 05:51:31;;;;;;;25.15;16.98;;;7.90;99.90;;;;;;4998602;28;20101;-69
2022/04/27 05:53:57;;;;;;;26.42;18.30;;;8.00;99.90;;;;;;5000175;28;20468;-70
2022/04/27 05:56:24;;;;;;;28.55;19.80;;;8.00;99.90;;;;;;5004901;28;20382;-70
2022/04/27 05:58:51;;;;;;;29.95;19.33;;;8.00;99.90;;;;;;5007944;28;20045;-70
2022/04/27 06:01:16;;;;;;;26.65;18.27;;;8.00;99.90;;;;;;5001533;28;20056;-70
2022/04/27 06:03:42;;;;;;;31.90;20.08;;;8.00;99.90;;;;;;5003311;28;20030;-70
2022/04/27 06:06:08;;;;;;;27.30;18.40;;;8.10;99.90;;;;;;5003857;28;20026;-70
2022/04/27 06:08:33;;;;;;;34.65;21.83;;;8.20;99.90;;;;;;5004702;28;20026;-69
2022/04/27 06:10:59;;;;;;;32.15;20.20;;;8.30;99.90;;;;;;4996742;28;20041;-70
2022/04/27 06:13:26;;;;;;;32.28;21.40;;;8.30;99.90;;;;;;4999111;28;20074;-69
2022/04/27 06:15:52;;;;;;;32.53;20.83;;;8.40;99.90;;;;;;4994259;28;20033;-70
2022/04/27 06:18:17;;;;;;;27.30;19.85;;;8.50;99.90;;;;;;4999549;28;20034;-70
2022/04/27 06:20:43;;;;;;;31.25;20.05;;;8.50;99.90;;;;;;5006637;28;20495;-70
2022/04/27 06:23:09;;;;;;;31.80;19.88;;;8.50;99.90;;;;;;5004874;28;20049;-70
2022/04/27 06:25:36;;;;;;;27.65;18.58;;;8.50;99.90;;;;;;5002139;28;20051;-69
2022/04/27 06:28:02;;;;;;;26.73;18.70;;;8.60;99.90;;;;;;4996782;28;20471;-70
2022/04/27 06:30:29;;;;;;;31.35;19.00;;;8.70;99.90;;;;;;5005267;28;20546;-70
2022/04/27 06:32:54;;;;;;;25.88;18.35;;;8.70;99.90;;;;;;4999903;28;20038;-70
2022/04/27 06:35:20;;;;;;;26.50;17.77;;;8.70;99.90;;;;;;5004504;28;20118;-70
2022/04/27 06:37:45;;;;;;;30.88;18.27;;;8.80;99.90;;;;;;4997917;28;20462;-70
2022/04/27 06:40:12;;;;;;;26.77;16.88;;;8.90;99.90;;;;;;5005647;28;20022;-70
2022/04/27 06:42:44;;;;;;;34.08;18.38;;;9.00;99.90;;;;;;5003274;28;20034;-70
2022/04/27 06:45:11;;;;;;;32.70;18.23;;;9.00;99.90;;;;;;5005559;28;20030;-69
2022/04/27 06:47:36;;;;;;;28.75;17.70;;;9.20;99.90;;;;;;4994699;28;20034;-69
2022/04/27 06:50:02;;;;;;;28.35;18.38;;;9.10;99.90;;;;;;5002875;28;20147;-70
2022/04/27 06:52:28;;;;;;;28.50;18.25;;;9.20;99.90;;;;;;4996793;28;20038;-70
2022/04/27 06:54:54;;;;;;;27.50;17.55;;;9.30;99.90;;;;;;5003643;28;20031;-69
2022/04/27 06:57:19;;;;;;;29.35;18.20;;;9.40;99.90;;;;;;5002824;28;20080;-70
2022/04/27 06:59:45;;;;;;;28.38;17.50;;;9.50;99.90;;;;;;4999244;28;20072;-70
2022/04/27 07:02:13;;;;;;;24.42;17.67;;;9.60;99.90;;;;;;5005793;28;20045;-70
2022/04/27 07:04:40;;;;;;;23.23;16.67;;;9.70;99.90;;;;;;5000921;28;20030;-70
2022/04/27 07:07:07;;;;;;;22.00;16.10;;;9.80;99.90;;;;;;5001109;28;20033;-70
2022/04/27 07:09:33;;;;;;;27.77;15.27;;;9.90;99.90;;;;;;5002777;28;20522;-70
2022/04/27 07:11:59;;;;;;;24.73;15.10;;;10.00;99.90;;;;;;5002024;28;20118;-70
2022/04/27 07:14:25;;;;;;;21.05;14.88;;;10.10;99.90;;;;;;5003156;28;20466;-69
2022/04/27 07:16:51;;;;;;;22.40;14.88;;;10.20;99.90;;;;;;4993553;28;20037;-69
2022/04/27 07:19:17;;;;;;;23.55;15.20;;;10.30;99.90;;;;;;4999582;28;20051;-69
2022/04/27 07:21:43;;;;;;;21.40;14.48;;;10.40;99.90;;;;;;4998836;28;20030;-70
2022/04/27 07:24:08;;;;;;;22.70;12.45;;;10.50;99.90;;;;;;5010344;28;20022;-70
2022/04/27 07:26:35;;;;;;;23.10;15.25;;;10.60;99.90;;;;;;5009778;28;20037;-71
2022/04/27 07:29:01;;;;;;;21.58;12.65;;;10.70;99.90;;;;;;5000422;28;20547;-71
2022/04/27 07:31:27;;;;;;;19.40;12.18;;;10.80;99.90;;;;;;5001741;28;20048;-70
2022/04/27 07:33:52;;;;;;;17.90;11.80;;;10.80;99.90;;;;;;5004102;28;20736;-71
2022/04/27 07:36:19;;;;;;;19.75;13.13;;;10.80;99.90;;;;;;5001233;28;20071;-71
2022/04/27 07:38:45;;;;;;;18.13;12.45;;;11.00;99.90;;;;;;4997591;28;20474;-71
2022/04/27 07:41:11;;;;;;;18.65;11.35;;;11.30;99.90;;;;;;5008185;28;20046;-71
2022/04/27 07:43:36;;;;;;;16.75;11.00;;;11.40;99.90;;;;;;5006400;28;20022;-70
2022/04/27 07:46:05;;;;;;;16.35;11.27;;;11.60;99.90;;;;;;5008848;28;20014;-71
2022/04/27 07:48:32;;;;;;;10.63;7.70;;;11.70;99.90;;;;;;5002467;28;20030;-70
2022/04/27 07:51:06;;;;;;;12.85;6.18;;;11.80;99.90;;;;;;5000604;28;20022;-71
2022/04/27 07:53:32;;;;;;;11.13;6.35;;;12.00;99.90;;;;;;5000490;28;20030;-70
2022/04/27 07:55:58;;;;;;;9.95;7.10;;;12.20;99.90;;;;;;4999279;28;20532;-71
2022/04/27 07:58:23;;;;;;;19.20;7.65;;;12.30;99.90;;;;;;4999429;28;20031;-71
2022/04/27 08:00:49;;;;;;;8.75;5.88;;;12.30;99.90;;;;;;5002522;28;20061;-71
2022/04/27 08:03:14;;;;;;;9.70;5.88;;;12.50;99.90;;;;;;5000809;28;20063;-71
2022/04/27 08:05:40;;;;;;;9.05;6.22;;;12.60;99.90;;;;;;5001822;28;20029;-71
2022/04/27 08:08:07;;;;;;;8.85;6.10;;;12.60;99.90;;;;;;5000671;28;20161;-71
2022/04/27 08:10:32;;;;;;;9.55;6.07;;;12.50;99.90;;;;;;5003316;28;20347;-71
2022/04/27 08:12:58;;;;;;;12.18;6.40;;;12.70;99.90;;;;;;4998817;28;20053;-71
2022/04/27 08:15:25;;;;;;;9.90;6.38;;;12.90;99.90;;;;;;5004290;28;20122;-72
2022/04/27 08:17:55;;;;;;;8.23;5.93;;;13.00;99.90;;;;;;5008731;28;20434;-71
2022/04/27 08:23:14;;;;;;;8.93;5.38;;;13.10;99.50;;;;;;5007619;28;20049;-71
2022/04/27 08:25:40;;;;;;;10.18;5.28;;;13.30;99.90;;;;;;5009637;28;20468;-71
2022/04/27 08:28:07;;;;;;;11.25;5.50;;;13.40;99.90;;;;;;5004837;28;20109;-71
2022/04/27 08:30:38;;;;;;;8.75;5.43;;;13.60;99.80;;;;;;5008217;28;20037;-71
2022/04/27 08:33:05;;;;;;;9.02;4.70;;;13.70;99.50;;;;;;5006100;28;20563;-71
2022/04/27 08:35:32;;;;;;;8.57;5.82;;;13.90;98.40;;;;;;5008211;28;20096;-71
2022/04/27 08:37:59;;;;;;;8.80;5.90;;;14.10;98.70;;;;;;5002140;28;20034;-70
2022/04/27 08:40:24;;;;;;;7.50;6.60;;;14.20;98.60;;;;;;4979604;28;20034;-71
2022/04/27 08:42:51;;;;;;;7.70;5.15;;;14.30;98.10;;;;;;5005627;28;20022;-70
2022/04/27 08:45:17;;;;;;;8.02;5.45;;;14.50;97.70;;;;;;5006636;28;20018;-71
2022/04/27 08:47:45;;;;;;;9.35;5.95;;;14.60;97.90;;;;;;4999800;28;20492;-71
2022/04/27 08:50:18;;;;;;;8.93;5.55;;;14.60;97.60;;;;;;5007743;28;20377;-71
2022/04/27 08:52:45;;;;;;;6.30;5.57;;;14.50;97.10;;;;;;5002311;28;20436;-71
2022/04/27 08:55:12;;;;;;;8.82;5.07;;;14.70;96.60;;;;;;5005061;28;20018;-72
2022/04/27 08:57:39;;;;;;;10.75;5.50;;;14.80;97.10;;;;;;5005298;28;20359;-72
2022/04/27 09:00:07;;;;;;;8.40;5.50;;;14.70;95.40;;;;;;4998238;28;20022;-72
2022/04/27 09:02:33;;;;;;;9.27;5.25;;;14.80;95.60;;;;;;5003541;28;20026;-72
2022/04/27 09:05:12;;;;;;;9.63;5.60;;;15.00;95.50;;;;;;5000974;28;20119;-71
2022/04/27 09:07:50;;;;;;;9.43;5.57;;;15.20;96.30;;;;;;5008394;28;20018;-72
2022/04/27 09:10:17;;;;;;;8.70;4.75;;;15.40;95.80;;;;;;5003231;28;20030;-71
2022/04/27 09:12:44;;;;;;;9.32;4.90;;;15.40;95.00;;;;;;5008793;28;20034;-72
2022/04/27 09:15:10;;;;;;;8.52;5.57;;;15.50;94.40;;;;;;4999930;28;20041;-72
2022/04/27 09:23:19;;;;;;;8.57;6.35;;;15.70;93.70;;;;;;5001848;28;20145;-71
2022/04/27 09:25:45;;;;;;;11.75;6.28;;;15.60;93.10;;;;;;5007503;28;20036;-71
2022/04/27 09:28:11;;;;;;;12.25;6.05;;;15.90;93.60;;;;;;5002776;28;20113;-70
2022/04/27 09:30:36;;;;;;;7.25;5.68;;;16.00;94.20;;;;;;5004320;28;20126;-71
2022/04/27 09:33:02;;;;;;;10.75;5.70;;;16.00;94.50;;;;;;5007752;28;20030;-71
2022/04/27 09:35:32;;;;;;;10.82;5.53;;;16.20;94.20;;;;;;5004830;28;20022;-71
2022/04/27 09:38:12;;;;;;;8.80;6.05;;;16.30;94.70;;;;;;4999871;28;20490;-71
2022/04/27 09:40:47;;;;;;;9.82;6.40;;;16.50;93.10;;;;;;5004545;28;20470;-72
2022/04/27 09:43:14;;;;;;;6.55;5.57;;;16.50;92.40;;;;;;5006997;28;20023;-71
2022/04/27 09:45:41;;;;;;;8.65;6.70;;;16.60;93.00;;;;;;5007385;28;20024;-72
2022/04/27 09:48:08;;;;;;;8.52;6.28;;;16.80;92.60;;;;;;5002922;28;20075;-71
2022/04/27 09:50:55;;;;;;;10.38;6.53;;;16.90;91.90;;;;;;5001164;28;20069;-72
2022/04/27 09:53:21;;;;;;;10.85;6.72;;;17.10;92.60;;;;;;4995297;28;20031;-72
2022/04/27 09:55:59;;;;;;;11.88;6.88;;;17.10;92.70;;;;;;5006831;28;20037;-72
2022/04/27 09:58:27;;;;;;;8.75;7.07;;;17.10;92.80;;;;;;4992148;28;20428;-72
2022/04/27 10:01:01;;;;;;;9.73;7.50;;;17.20;91.80;;;;;;5003722;28;20033;-71
2022/04/27 10:03:27;;;;;;;7.60;6.82;;;17.10;92.10;;;;;;5000597;28;20056;-72
2022/04/27 10:05:53;;;;;;;10.20;7.30;;;17.30;91.70;;;;;;5004684;28;20054;-71
2022/04/27 10:08:20;;;;;;;10.55;6.78;;;17.40;92.70;;;;;;4996089;28;20018;-71
2022/04/27 10:10:47;;;;;;;13.20;6.88;;;17.60;92.10;;;;;;5000009;28;20094;-71
2022/04/27 10:13:14;;;;;;;10.40;7.38;;;17.50;91.80;;;;;;4997131;28;20039;-72
2022/04/27 10:15:42;;;;;;;13.02;7.50;;;17.60;91.20;;;;;;5005872;28;20061;-72
2022/04/27 10:18:10;;;;;;;9.35;7.05;;;17.70;91.60;;;;;;4996484;28;20075;-71
2022/04/27 10:20:36;;;;;;;10.00;7.80;;;17.90;92.20;;;;;;5001052;28;20381;-72
2022/04/27 10:23:32;;;;;;;11.18;8.45;;;18.00;91.10;;;;;;4998058;28;20478;-71
2022/04/27 10:26:18;;;;;;;9.82;7.80;;;18.00;90.00;;;;;;5007179;28;20394;-71
2022/04/27 10:28:48;;;;;;;11.25;7.85;;;18.00;90.60;;;;;;5007063;28;20030;-71
2022/04/27 10:31:40;;;;;;;8.65;7.80;;;18.00;89.70;;;;;;5002362;28;20026;-71
2022/04/27 10:34:33;;;;;;;12.23;8.70;;;18.10;91.20;;;;;;5007712;28;20038;-72
2022/04/27 10:37:00;;;;;;;11.55;8.40;;;18.30;90.30;;;;;;5000975;28;20596;-72
2022/04/27 10:39:31;;;;;;;11.00;7.10;;;18.30;90.50;;;;;;5008070;28;20462;-72
2022/04/27 10:42:17;;;;;;;10.30;7.03;;;18.50;90.80;;;;;;5002871;28;20037;-72
2022/04/27 10:44:51;;;;;;;10.10;7.70;;;18.70;90.20;;;;;;4999920;28;20540;-72
2022/04/27 10:47:21;;;;;;;10.98;7.63;;;18.70;90.70;;;;;;4999505;28;20030;-71
2022/04/27 10:49:50;;;;;;;12.35;8.13;;;18.50;89.00;;;;;;4986130;28;20029;-72
2022/04/27 10:52:22;;;;;;;10.80;7.72;;;18.30;88.80;;;;;;4995111;28;20052;-71
2022/04/27 10:54:48;;;;;;;12.25;7.97;;;18.40;89.20;;;;;;4984633;28;20435;-72
2022/04/27 10:57:16;;;;;;;9.48;7.43;;;18.60;90.00;;;;;;4997216;28;20053;-72
2022/04/27 10:59:44;;;;;;;13.27;8.63;;;18.60;90.00;;;;;;4993854;28;20096;-71
2022/04/27 11:02:33;;;;;;;10.18;7.90;;;18.70;88.20;;;;;;4984940;28;20032;-71
2022/04/27 11:04:59;;;;;;;11.23;7.43;;;18.80;88.90;;;;;;4995818;28;20029;-72
2022/04/27 11:07:24;;;;;;;10.68;7.70;;;18.70;87.60;;;;;;5002799;28;20040;-72
2022/04/27 11:10:12;;;;;;;14.60;7.63;;;18.90;88.90;;;;;;4999080;28;20022;-71
2022/04/27 11:12:39;;;;;;;9.20;8.35;;;19.20;90.30;;;;;;4995960;28;20583;-71
2022/04/27 11:15:07;;;;;;;12.18;8.18;;;18.90;88.50;;;;;;5001534;28;20490;-71
2022/04/27 11:17:35;;;;;;;13.02;7.50;;;18.80;90.40;;;;;;4999842;28;20018;-72
2022/04/27 11:20:03;;;;;;;11.55;6.88;;;18.80;87.10;;;;;;4996901;28;20390;-72
2022/04/27 11:22:38;;;;;;;9.73;6.75;;;18.70;88.20;;;;;;4996339;28;20033;-72
2022/04/27 11:25:07;;;;;;;10.43;7.50;;;18.70;88.80;;;;;;4999455;28;20033;-72
2022/04/27 11:27:34;;;;;;;10.10;7.40;;;19.00;88.30;;;;;;4998744;28;20026;-72
2022/04/27 11:30:03;;;;;;;10.45;7.25;;;19.10;87.80;;;;;;5006421;28;20022;-74
2022/04/27 11:32:28;;;;;;;9.23;7.13;;;19.30;87.90;;;;;;4990946;28;20046;-73
2022/04/27 11:34:54;;;;;;;11.63;7.20;;;19.20;86.50;;;;;;4998802;28;20034;-76
2022/04/27 11:37:21;;;;;;;9.20;7.18;;;19.20;86.40;;;;;;5001681;28;20084;-75
2022/04/27 11:39:47;;;;;;;9.82;7.05;;;19.10;86.70;;;;;;4986439;28;20068;-74
2022/04/27 11:42:16;;;;;;;9.43;6.97;;;18.80;87.60;;;;;;5002073;28;20037;-73
2022/04/27 11:44:43;;;;;;;7.18;6.25;;;18.90;87.40;;;;;;5007598;28;20167;-74
2022/04/27 11:47:32;;;;;;;9.00;8.10;;;19.10;89.60;;;;;;4999654;28;20026;-73
2022/04/27 11:50:03;;;;;;;11.82;7.70;;;19.10;84.60;;;;;;4999786;28;20022;-74
2022/04/27 11:52:36;;;;;;;8.75;7.82;;;19.20;86.80;;;;;;4982587;28;20400;-73
2022/04/27 11:55:11;;;;;;;10.38;8.18;;;19.10;85.30;;;;;;4976014;28;20058;-73
2022/04/27 11:57:39;;;;;;;11.65;7.68;;;18.70;86.30;;;;;;4962811;28;20034;-73
2022/04/27 12:00:05;;;;;;;11.00;9.68;;;18.90;88.10;;;;;;4964657;28;20035;-74
2022/04/27 12:02:33;;;;;;;13.05;8.98;;;19.10;84.10;;;;;;4961255;28;20053;-71
2022/04/27 12:04:59;;;;;;;10.15;8.48;;;19.30;86.90;;;;;;4966403;28;20036;-72
2022/04/27 12:07:25;;;;;;;12.02;8.70;;;19.60;88.70;;;;;;4965394;28;20035;-71
2022/04/27 12:09:59;;;;;;;11.50;9.05;;;19.70;85.70;;;;;;4963527;28;20507;-70
2022/04/27 12:12:29;;;;;;;14.73;9.15;;;20.00;85.90;;;;;;4962471;28;20066;-71
2022/04/27 12:14:57;;;;;;;12.73;9.00;;;20.20;87.10;;;;;;4962893;28;20038;-71
2022/04/27 12:17:48;;;;;;;9.38;8.10;;;19.90;85.10;;;;;;4962771;28;20076;-71
2022/04/27 12:20:31;;;;;;;15.35;8.32;;;19.80;85.50;;;;;;4966211;28;20114;-71
2022/04/27 12:23:01;;;;;;;11.00;8.88;;;19.90;87.10;;;;;;4960418;28;20066;-72
2022/04/27 12:25:39;;;;;;;10.55;8.10;;;20.00;84.80;;;;;;4966212;28;20022;-72
2022/04/27 12:28:06;;;;;;;18.42;9.55;;;20.10;85.80;;;;;;4965593;28;20045;-71
2022/04/27 12:30:42;;;;;;;10.32;8.05;;;19.90;83.80;;;;;;4963823;28;20494;-72
2022/04/27 12:33:09;;;;;;;10.82;8.23;;;19.60;83.00;;;;;;4963803;28;20041;-71
2022/04/27 12:38:19;;;;;;;9.30;7.90;;;19.30;86.00;;;;;;4964004;28;20037;-71
2022/04/27 12:40:45;;;;;;;9.43;8.48;;;19.20;84.70;;;;;;4964691;28;20125;-71
2022/04/27 12:43:15;;;;;;;9.77;8.32;;;18.90;85.90;;;;;;4963696;28;20791;-71
2022/04/27 12:46:05;;;;;;;13.73;9.25;;;18.80;86.50;;;;;;4963960;28;20030;-71
2022/04/27 12:48:31;;;;;;;12.27;9.43;;;18.50;86.50;;;;;;4962884;28;20076;-71
2022/04/27 12:50:58;;;;;;;10.48;8.52;;;18.70;85.10;;;;;;4962784;28;20459;-71
2022/04/27 12:53:25;;;;;;;9.75;8.20;;;18.60;84.90;;;;;;4962518;28;20035;-71
2022/04/27 12:56:11;;;;;;;11.60;7.47;;;18.60;87.90;;;;;;4967897;28;20463;-71
2022/04/27 12:58:38;;;;;;;11.35;8.43;;;18.70;86.60;;;;;;4963442;28;20113;-71
2022/04/27 13:01:03;;;;;;;16.15;8.05;;;18.80;86.40;;;;;;4963427;28;20526;-71
2022/04/27 13:03:29;;;;;;;9.45;8.50;;;18.90;87.30;;;;;;4967099;28;20101;-71
2022/04/27 13:05:55;;;;;;;12.68;9.60;;;18.80;86.50;;;;;;4958873;28;20025;-71